createdAt,value
2022-11-10T00:03:28.498Z,20.45
2022-11-10T00:08:58.803Z,23.40
2022-11-10T00:14:48.109Z,13.57
2022-11-10T00:17:36.546Z,19.02
2022-11-10T00:20:21.969Z,18.15
2022-11-10T00:23:07.068Z,19.58
2022-11-10T00:28:38.057Z,14.13
2022-11-10T00:31:23.503Z,21.05
2022-11-10T00:34:15.963Z,21.10
2022-11-10T00:37:01.417Z,19.73
2022-11-10T00:39:46.661Z,18.20
2022-11-10T00:42:32.323Z,15.75
2022-11-10T00:45:17.555Z,24.17
2022-11-10T00:48:03.316Z,21.33
2022-11-10T00:50:48.627Z,18.95
2022-11-10T00:53:33.774Z,21.98
2022-11-10T00:59:04.861Z,15.07
2022-11-10T01:04:35.923Z,16.30
2022-11-10T01:07:21.328Z,15.43
2022-11-10T01:10:07.307Z,18.77
2022-11-10T01:15:42.662Z,18.45
2022-11-10T01:18:28.226Z,12.88
2022-11-10T01:21:13.452Z,13.85
2022-11-10T01:23:58.957Z,18.92
2022-11-10T01:26:44.074Z,14.85
2022-11-10T01:29:29.437Z,12.70
2022-11-10T01:32:15.044Z,12.07
2022-11-10T01:35:00.191Z,11.88
2022-11-10T01:37:45.709Z,9.40
2022-11-10T01:40:31.132Z,9.80
2022-11-10T01:43:16.840Z,7.03
2022-11-10T01:46:07.493Z,7.32
2022-11-10T01:48:59.535Z,10.60
2022-11-10T01:52:05.232Z,11.35
2022-11-10T01:54:51.090Z,14.50
2022-11-10T01:57:38.057Z,12.05
2022-11-10T02:00:23.841Z,6.53
2022-11-10T02:03:41.370Z,9.65
2022-11-10T02:06:31.587Z,8.52
2022-11-10T02:09:17.822Z,10.48
2022-11-10T02:12:03.741Z,8.65
2022-11-10T02:17:34.940Z,11.55
2022-11-10T02:20:21.702Z,12.85
2022-11-10T02:23:36.000Z,15.68
2022-11-10T02:26:25.917Z,10.43
2022-11-10T02:29:11.682Z,10.10
2022-11-10T02:31:56.843Z,12.43
2022-11-10T02:34:42.987Z,11.15
2022-11-10T02:40:13.584Z,8.52
2022-11-10T02:42:58.678Z,7.35
2022-11-10T02:45:44.619Z,8.82
2022-11-10T02:51:15.191Z,12.18
2022-11-10T02:54:00.823Z,14.25
2022-11-10T02:59:31.975Z,13.10
2022-11-10T03:02:17.609Z,19.30
2022-11-10T03:07:56.293Z,12.88
2022-11-10T03:10:42.360Z,11.35
2022-11-10T03:13:40.215Z,20.48
2022-11-10T03:16:32.876Z,23.95
2022-11-10T03:19:18.358Z,92.75
2022-11-10T03:22:03.724Z,6.53
2022-11-10T03:24:49.171Z,14.75
2022-11-10T03:27:34.499Z,18.77
2022-11-10T03:30:19.923Z,18.27
2022-11-10T03:33:06.139Z,22.08
2022-11-10T03:35:51.387Z,23.90
2022-11-10T03:38:36.728Z,17.80
2022-11-10T03:41:22.323Z,19.77
2022-11-10T03:44:07.805Z,19.50
2022-11-10T03:46:52.949Z,18.80
2022-11-10T03:49:38.340Z,38.95
2022-11-10T03:52:23.704Z,13.23
2022-11-10T03:55:11.844Z,12.95
2022-11-10T03:58:02.213Z,11.45
2022-11-10T04:00:47.474Z,10.95
2022-11-10T04:03:33.142Z,20.80
2022-11-10T04:06:37.148Z,14.48
2022-11-10T04:09:22.642Z,23.35
2022-11-10T04:12:27.054Z,16.85
2022-11-10T04:15:32.130Z,15.50
2022-11-10T04:18:26.161Z,13.27
2022-11-10T04:21:12.351Z,19.85
2022-11-10T04:23:57.872Z,18.15
2022-11-10T04:29:29.085Z,19.23
2022-11-10T04:35:00.070Z,16.88
2022-11-10T04:37:47.043Z,22.45
2022-11-10T04:40:32.248Z,19.08
2022-11-10T04:43:17.575Z,25.25
2022-11-10T04:46:03.973Z,22.65
2022-11-10T04:48:50.192Z,19.52
2022-11-10T04:51:38.590Z,19.30
2022-11-10T04:54:23.899Z,18.35
2022-11-10T04:57:09.336Z,17.52
2022-11-10T04:59:54.760Z,14.52
2022-11-10T05:02:40.231Z,13.85
2022-11-10T05:05:25.839Z,17.85
2022-11-10T05:08:11.282Z,16.77
2022-11-10T05:10:57.049Z,12.00
2022-11-10T05:13:43.083Z,104.57
2022-11-10T05:16:28.337Z,133.05
2022-11-10T05:19:13.946Z,18.13
2022-11-10T05:21:59.485Z,10.32
2022-11-10T05:24:44.949Z,9.88
2022-11-10T05:27:30.352Z,8.07
2022-11-10T05:30:16.120Z,6.97
2022-11-10T05:33:02.618Z,34.13
2022-11-10T05:35:50.048Z,6.78
2022-11-10T05:38:41.840Z,5.25
2022-11-10T05:41:29.000Z,7.97
2022-11-10T05:44:14.591Z,4.03
2022-11-10T05:47:00.101Z,2.88
2022-11-10T05:49:45.867Z,2.72
2022-11-10T05:55:18.532Z,4.35
2022-11-10T05:58:04.394Z,10.05
2022-11-10T06:03:34.622Z,4.70
2022-11-10T06:09:06.010Z,2.92
2022-11-10T06:11:51.300Z,3.33
2022-11-10T06:17:22.112Z,3.85
2022-11-10T06:20:07.955Z,4.25
2022-11-10T06:23:05.161Z,3.13
2022-11-10T06:25:50.497Z,3.92
2022-11-10T06:28:35.934Z,2.80
2022-11-10T06:31:21.133Z,5.85
2022-11-10T06:34:06.652Z,11.10
2022-11-10T06:36:51.971Z,5.85
2022-11-10T06:39:37.410Z,8.70
2022-11-10T06:45:08.645Z,7.75
2022-11-10T06:48:05.347Z,8.10
2022-11-10T06:50:50.457Z,6.57
2022-11-10T06:53:35.563Z,5.93
2022-11-10T06:56:20.799Z,5.47
2022-11-10T06:59:06.546Z,3.10
2022-11-10T07:01:51.876Z,5.47
2022-11-10T07:04:36.980Z,5.97
2022-11-10T07:07:22.656Z,4.95
2022-11-10T07:10:08.098Z,6.13
2022-11-10T07:13:02.387Z,7.65
2022-11-10T07:15:47.683Z,6.10
2022-11-10T07:18:33.257Z,4.10
2022-11-10T07:21:18.214Z,8.45
2022-11-10T07:24:03.957Z,4.07
2022-11-10T07:26:49.059Z,8.85
2022-11-10T07:29:34.175Z,5.78
2022-11-10T07:32:19.620Z,5.43
2022-11-10T07:35:05.139Z,4.25
2022-11-10T07:37:50.382Z,6.95
2022-11-10T07:40:36.329Z,6.80
2022-11-10T07:43:24.354Z,6.05
2022-11-10T07:46:10.596Z,4.57
2022-11-10T07:48:56.174Z,5.88
2022-11-10T07:51:42.973Z,3.65
2022-11-10T07:54:28.353Z,13.15
2022-11-10T07:57:13.600Z,6.80
2022-11-10T07:59:59.225Z,12.85
2022-11-10T08:02:44.271Z,15.35
2022-11-10T08:05:29.898Z,15.35
2022-11-10T08:08:15.415Z,16.88
2022-11-10T08:11:00.813Z,19.40
2022-11-10T08:13:46.440Z,14.48
2022-11-10T08:16:32.361Z,16.58
2022-11-10T08:19:17.965Z,19.08
2022-11-10T08:22:03.747Z,9.73
2022-11-10T08:24:49.127Z,10.35
2022-11-10T08:27:34.612Z,12.25
2022-11-10T08:30:20.155Z,11.40
2022-11-10T08:33:07.408Z,15.60
2022-11-10T08:35:53.330Z,14.73
2022-11-10T08:38:38.605Z,4.00
2022-11-10T08:41:24.114Z,27.13
2022-11-10T08:44:11.069Z,11.02
2022-11-10T08:46:56.578Z,15.40
2022-11-10T08:49:42.072Z,22.55
2022-11-10T08:52:27.746Z,7.63
2022-11-10T08:55:13.448Z,6.88
2022-11-10T09:00:45.406Z,14.75
2022-11-10T09:03:30.550Z,8.88
2022-11-10T09:06:15.874Z,3.10
2022-11-10T09:09:01.252Z,3.42
2022-11-10T09:11:46.715Z,5.90
2022-11-10T09:14:32.305Z,5.25
2022-11-10T09:17:17.846Z,1.88
2022-11-10T09:20:04.943Z,5.78
2022-11-10T09:22:50.750Z,4.15
2022-11-10T09:28:23.037Z,5.45
2022-11-10T09:31:08.443Z,4.13
2022-11-10T09:33:53.765Z,1.85
2022-11-10T09:36:40.463Z,5.03
2022-11-10T09:39:26.233Z,2.95
2022-11-10T09:42:33.335Z,5.90
2022-11-10T09:45:25.300Z,2.97
2022-11-10T09:48:42.290Z,2.75
2022-11-10T09:51:46.992Z,2.45
2022-11-10T09:57:25.385Z,4.53
2022-11-10T10:00:16.512Z,3.58
2022-11-10T10:03:04.525Z,3.08
2022-11-10T10:06:10.066Z,7.25
2022-11-10T10:09:08.840Z,7.57
2022-11-10T10:12:08.117Z,1.95
2022-11-10T10:15:02.996Z,2.60
2022-11-10T10:17:51.387Z,4.70
2022-11-10T10:20:45.024Z,2.45
2022-11-10T10:24:07.177Z,2.72
2022-11-10T10:26:55.406Z,2.17
2022-11-10T10:29:45.608Z,2.00
2022-11-10T10:32:31.049Z,5.13
2022-11-10T10:35:17.711Z,3.38
2022-11-10T10:38:04.620Z,3.15
2022-11-10T10:40:52.276Z,3.25
2022-11-10T10:43:39.322Z,3.53
2022-11-10T10:46:34.422Z,3.28
2022-11-10T10:49:29.657Z,6.38
2022-11-10T10:52:24.983Z,2.80
2022-11-10T10:55:13.366Z,6.33
2022-11-10T10:58:05.218Z,3.13
2022-11-10T11:01:01.035Z,5.53
2022-11-10T11:03:50.816Z,2.65
2022-11-10T11:06:36.681Z,2.45
2022-11-10T11:09:31.227Z,1.60
2022-11-10T11:12:22.769Z,5.63
2022-11-10T11:15:19.089Z,3.35
2022-11-10T11:18:13.639Z,3.58
2022-11-10T11:21:37.704Z,8.18
2022-11-10T11:24:55.065Z,6.05
2022-11-10T11:28:06.014Z,11.13
2022-11-10T11:31:10.715Z,4.03
2022-11-10T11:34:29.580Z,2.08
2022-11-10T11:38:12.339Z,3.25
2022-11-10T11:41:45.425Z,1.77
2022-11-10T11:44:39.969Z,3.33
2022-11-10T11:48:04.380Z,4.18
2022-11-10T11:50:58.234Z,4.25
2022-11-10T11:54:17.968Z,4.05
2022-11-10T11:57:41.998Z,5.88
2022-11-10T12:00:35.157Z,1.75
2022-11-10T12:04:03.918Z,1.95
2022-11-10T12:07:10.949Z,1.92
2022-11-10T12:10:12.969Z,4.25
2022-11-10T12:13:16.783Z,3.38
2022-11-10T12:16:18.000Z,3.40
2022-11-10T12:19:24.473Z,11.90
2022-11-10T12:22:25.388Z,2.50
2022-11-10T12:25:26.471Z,4.60
2022-11-10T12:28:17.639Z,2.38
2022-11-10T12:31:06.451Z,3.08
2022-11-10T12:34:04.450Z,4.60
2022-11-10T12:36:51.886Z,6.38
2022-11-10T12:39:48.749Z,1.20
2022-11-10T12:42:37.977Z,4.45
2022-11-10T12:45:32.573Z,7.25
2022-11-10T12:48:19.070Z,1.17
2022-11-10T12:51:12.828Z,3.03
2022-11-10T12:53:58.500Z,3.67
2022-11-10T12:57:01.846Z,5.70
2022-11-10T12:59:59.631Z,4.65
2022-11-10T13:02:46.851Z,2.80
2022-11-10T13:05:45.561Z,6.00
2022-11-10T13:08:44.336Z,3.53
2022-11-10T13:11:34.900Z,2.90
2022-11-10T13:14:28.314Z,7.50
2022-11-10T13:17:26.173Z,3.55
2022-11-10T13:20:39.898Z,2.42
2022-11-10T13:23:44.646Z,2.25
2022-11-10T13:26:39.147Z,1.55
2022-11-10T13:29:32.360Z,4.28
2022-11-10T13:32:26.014Z,3.92
2022-11-10T13:35:29.808Z,5.25
2022-11-10T13:38:45.429Z,1.45
2022-11-10T13:41:34.573Z,3.22
2022-11-10T13:44:36.517Z,2.45
2022-11-10T13:47:35.106Z,4.03
2022-11-10T13:50:37.944Z,9.70
2022-11-10T13:53:55.607Z,6.22
2022-11-10T13:57:00.798Z,4.65
2022-11-10T14:00:15.859Z,5.32
2022-11-10T14:03:06.523Z,1.80
2022-11-10T14:06:03.444Z,1.92
2022-11-10T14:08:57.125Z,8.30
2022-11-10T14:11:50.113Z,5.13
2022-11-10T14:14:43.921Z,3.55
2022-11-10T14:17:34.652Z,3.35
2022-11-10T14:20:42.845Z,3.00
2022-11-10T14:23:43.841Z,5.85
2022-11-10T14:26:34.852Z,2.88
2022-11-10T14:29:40.743Z,9.15
2022-11-10T14:32:27.132Z,7.43
2022-11-10T14:35:24.978Z,8.02
2022-11-10T14:38:21.588Z,10.73
2022-11-10T14:41:16.482Z,7.15
2022-11-10T14:44:06.813Z,9.77
2022-11-10T14:46:52.770Z,11.23
2022-11-10T14:49:38.039Z,9.32
2022-11-10T14:55:15.065Z,12.27
2022-11-10T14:58:22.663Z,8.25
2022-11-10T15:01:24.806Z,16.13
2022-11-10T15:04:12.217Z,18.80
2022-11-10T15:06:59.873Z,16.13
2022-11-10T15:10:05.940Z,10.27
2022-11-10T15:13:02.939Z,5.90
2022-11-10T15:15:48.795Z,12.07
2022-11-10T15:18:34.044Z,19.95
2022-11-10T15:21:21.908Z,9.43
2022-11-10T15:24:07.656Z,11.88
2022-11-10T15:26:53.035Z,17.92
2022-11-10T15:29:38.396Z,11.07
2022-11-10T15:32:49.101Z,12.07
2022-11-10T15:35:34.885Z,12.52
2022-11-10T15:38:25.043Z,8.85
2022-11-10T15:41:26.824Z,11.18
2022-11-10T15:44:18.205Z,9.07
2022-11-10T15:47:03.600Z,16.98
2022-11-10T15:49:48.987Z,18.27
2022-11-10T15:52:35.056Z,33.00
2022-11-10T15:58:18.287Z,31.30
2022-11-10T16:01:03.929Z,33.75
2022-11-10T16:06:35.115Z,24.73
2022-11-10T16:09:20.777Z,37.47
2022-11-10T16:14:53.122Z,39.13
2022-11-10T16:17:38.732Z,37.70
2022-11-10T16:20:24.350Z,41.22
2022-11-10T16:23:09.920Z,31.33
2022-11-10T16:25:56.949Z,28.67
2022-11-10T16:28:44.308Z,34.20
2022-11-10T16:31:31.902Z,38.08
2022-11-10T16:34:17.600Z,22.20
2022-11-10T16:39:48.509Z,32.08
2022-11-10T16:42:33.894Z,34.35
2022-11-10T16:45:30.231Z,29.75
2022-11-10T16:48:18.234Z,39.95
2022-11-10T16:51:04.105Z,33.13
2022-11-10T16:53:51.283Z,27.77
2022-11-10T16:56:36.911Z,32.05
2022-11-10T16:59:22.421Z,29.45
2022-11-10T17:02:31.599Z,37.60
2022-11-10T17:05:17.520Z,32.80
2022-11-10T17:08:03.940Z,38.97
2022-11-10T17:10:50.835Z,23.10
2022-11-10T17:13:36.199Z,30.60
2022-11-10T17:16:37.858Z,31.75
2022-11-10T17:19:26.487Z,33.45
2022-11-10T17:22:17.233Z,30.27
2022-11-10T17:25:03.579Z,24.95
2022-11-10T17:27:49.202Z,28.73
2022-11-10T17:30:34.518Z,27.75
2022-11-10T17:36:27.676Z,24.60
2022-11-10T17:39:15.504Z,20.35
2022-11-10T17:42:01.716Z,24.55
2022-11-10T17:44:47.244Z,20.45
2022-11-10T17:47:32.493Z,16.20
2022-11-10T17:50:20.220Z,28.45
2022-11-10T17:53:26.768Z,19.63
2022-11-10T17:56:12.663Z,19.02
2022-11-10T18:01:43.553Z,17.27
2022-11-10T18:07:14.749Z,14.63
2022-11-10T18:10:00.100Z,23.67
2022-11-10T18:12:45.390Z,14.20
2022-11-10T18:15:30.726Z,30.20
2022-11-10T18:18:17.649Z,15.15
2022-11-10T18:21:03.745Z,19.25
2022-11-10T18:23:49.296Z,18.88
2022-11-10T18:26:34.778Z,14.05
2022-11-10T18:32:06.189Z,22.88
2022-11-10T18:34:51.435Z,21.15
2022-11-10T18:37:39.055Z,14.68
2022-11-10T18:40:25.527Z,16.45
2022-11-10T18:45:56.054Z,18.83
2022-11-10T18:48:42.623Z,26.02
2022-11-10T18:51:28.643Z,20.10
2022-11-10T18:56:59.517Z,19.77
2022-11-10T18:59:45.384Z,29.60
2022-11-10T19:02:31.125Z,32.28
2022-11-10T19:05:16.407Z,32.00
2022-11-10T19:08:01.462Z,28.25
2022-11-10T19:10:46.971Z,19.10
2022-11-10T19:13:32.326Z,25.63
2022-11-10T19:16:19.085Z,23.05
2022-11-10T19:19:04.534Z,31.38
2022-11-10T19:21:50.062Z,20.10
2022-11-10T19:24:53.665Z,20.40
2022-11-10T19:27:41.980Z,20.98
2022-11-10T19:30:27.395Z,25.02
2022-11-10T19:33:12.645Z,23.55
2022-11-10T19:39:04.278Z,16.92
2022-11-10T19:41:49.322Z,24.55
2022-11-10T19:44:34.853Z,16.63
2022-11-10T19:47:20.843Z,15.77
2022-11-10T19:50:06.941Z,15.68
2022-11-10T19:55:37.425Z,14.55
2022-11-10T19:58:23.137Z,14.82
2022-11-10T20:01:10.250Z,16.15
2022-11-10T20:03:55.805Z,15.38
2022-11-10T20:06:41.032Z,15.52
2022-11-10T20:09:26.368Z,13.00
2022-11-10T20:12:12.637Z,14.73
2022-11-10T20:14:58.048Z,16.52
2022-11-10T20:17:43.373Z,18.40
2022-11-10T20:20:28.741Z,14.77
2022-11-10T20:23:15.870Z,15.23
2022-11-10T20:26:12.549Z,15.25
2022-11-10T20:28:58.112Z,12.48
2022-11-10T20:31:43.469Z,21.42
2022-11-10T20:34:29.259Z,12.90
2022-11-10T20:40:00.034Z,11.98
2022-11-10T20:42:45.884Z,10.32
2022-11-10T20:45:31.092Z,13.18
2022-11-10T20:48:16.513Z,7.97
2022-11-10T20:51:01.858Z,9.70
2022-11-10T20:53:48.059Z,6.82
2022-11-10T20:56:33.393Z,10.43
2022-11-10T20:59:18.840Z,11.13
2022-11-10T21:04:49.842Z,9.10
2022-11-10T21:07:35.322Z,9.27
2022-11-10T21:10:20.758Z,13.88
2022-11-10T21:13:06.046Z,9.10
2022-11-10T21:15:57.056Z,16.58
2022-11-10T21:18:42.083Z,16.65
2022-11-10T21:21:34.105Z,15.55
2022-11-10T21:24:19.855Z,15.40
2022-11-10T21:27:05.158Z,15.00
2022-11-10T21:29:50.651Z,11.25
2022-11-10T21:32:36.028Z,13.77
2022-11-10T21:35:21.471Z,7.35
2022-11-10T21:38:07.742Z,8.77
2022-11-10T21:40:53.107Z,8.02
2022-11-10T21:46:24.505Z,16.95
2022-11-10T21:51:55.461Z,10.20
2022-11-10T21:54:40.648Z,6.93
2022-11-10T21:57:26.197Z,6.13
2022-11-10T22:00:13.119Z,12.45
2022-11-10T22:03:00.111Z,10.82
2022-11-10T22:05:45.660Z,8.50
2022-11-10T22:08:31.109Z,8.70
2022-11-10T22:11:38.843Z,9.05
2022-11-10T22:14:42.387Z,14.75
2022-11-10T22:17:46.695Z,17.27
2022-11-10T22:20:32.467Z,12.68
2022-11-10T22:23:17.904Z,18.52
2022-11-10T22:26:03.397Z,15.25
2022-11-10T22:28:48.925Z,15.90
2022-11-10T22:31:34.303Z,19.13
2022-11-10T22:34:20.721Z,15.10
2022-11-10T22:37:06.463Z,14.90
2022-11-10T22:40:09.957Z,12.57
2022-11-10T22:43:13.982Z,11.68
2022-11-10T22:45:59.506Z,13.50
2022-11-10T22:48:45.144Z,17.02
2022-11-10T22:51:32.063Z,12.93
2022-11-10T22:54:23.250Z,11.80
2022-11-10T22:57:08.653Z,11.48
2022-11-10T23:02:39.432Z,16.67
2022-11-10T23:05:24.785Z,20.73
2022-11-10T23:08:10.192Z,24.35
2022-11-10T23:11:06.691Z,21.38
2022-11-10T23:13:52.320Z,19.08
2022-11-10T23:16:37.564Z,18.27
2022-11-10T23:19:22.784Z,14.95
2022-11-10T23:22:08.174Z,13.98
2022-11-10T23:24:56.984Z,15.90
2022-11-10T23:27:42.657Z,11.50
2022-11-10T23:30:27.939Z,17.52
2022-11-10T23:33:13.379Z,15.38
2022-11-10T23:35:58.656Z,20.52
2022-11-10T23:38:44.462Z,20.13
2022-11-10T23:41:29.485Z,17.23
2022-11-10T23:44:14.976Z,20.38
2022-11-10T23:47:00.607Z,20.02
2022-11-10T23:49:45.723Z,18.15
2022-11-10T23:52:31.100Z,24.15
2022-11-10T23:55:16.738Z,18.77
2022-11-10T23:58:03.062Z,14.55
